PAKT/KTN METAR and TAF weather

Enter ICAO airport designator
Station Type Date Time Source
PAKT METAR 2021/05/11 22:53 UTC NOAA

PAKT 112253Z 33005KT 10SM OVC032 11/07 A3025 RMK AO2 SLP245 HARBOR WIND 22003KT T01110067


Station Type Date Time Source
PAKT Decoded METAR 2021/05/11 22:53 UTC NOAA

KETCHIKAN INTERNATIONAL AIRPORT , AK, United States (PAKT) 55-21N 131-43W 25M
May 11, 2021 - 06:53 PM EDT / 2021.05.11 2253 UTC
Wind: from the NNW (330 degrees) at 6 MPH (5 KT):0
Visibility: 10 mile(s):0
Sky conditions: overcast
Temperature: 52.0 F (11.1 C)
Dew Point: 44.1 F (6.7 C)
Relative Humidity: 74%
Pressure (altimeter): 30.25 in. Hg (1024 hPa)
ob: PAKT 112253Z 33005KT 10SM OVC032 11/07 A3025 RMK AO2 SLP245 HARBOR WIND 22003KT T01110067
cycle: 23

Station Type Date Time Source
PAKT TAF 2021/05/11 18:24 UTC NOAA

TAF PAKT 111723Z 1118/1218 12004KT P6SM VCSH SCT010 OVC020
FM112100 30007KT P6SM SCT025 OVC040
FM121100 32004KT 6SM BR FEW007 BKN015 OVC030
AMD LTD TO CLD VIS AND WIND 1206/1215

Example: see airport list